Time;durP1;ratioP1;P1;durP2;ratioP2;P2;SDS_P1;SDS_P2;PMS_P1;PMS_P2;Temp;Humidity;BMP_temperature;BMP_pressure;BME280_temperature;BME280_humidity;BME280_pressure;Samples;Min_cycle;Max_cycle;Signal;HPM_P1;HPM_P2
2023/09/14 00:00:04;;;;;;;13.20;5.10;;;;;;;21.07;48.00;94786.69;4199045;28;20056;-75
2023/09/14 00:02:06;;;;;;;14.38;5.47;;;;;;;21.03;48.45;94786.31;4192366;28;20051;-75
2023/09/14 00:04:08;;;;;;;11.32;4.97;;;;;;;21.02;48.59;94789.22;4196853;28;20115;-75
2023/09/14 00:06:10;;;;;;;12.57;5.13;;;;;;;21.01;48.15;94787.56;4201594;28;20416;-75
2023/09/14 00:08:12;;;;;;;8.55;4.90;;;;;;;20.96;48.61;94787.44;4202021;28;20072;-77
2023/09/14 00:10:14;;;;;;;10.13;5.50;;;;;;;20.94;48.78;94784.97;4202394;28;20064;-75
2023/09/14 00:12:16;;;;;;;13.43;5.70;;;;;;;20.86;49.21;94783.44;4203033;28;20100;-75
2023/09/14 00:14:18;;;;;;;11.80;5.25;;;;;;;20.82;48.63;94790.25;4201443;28;20083;-75
2023/09/14 00:16:19;;;;;;;19.00;5.47;;;;;;;20.67;49.08;94784.44;4191829;28;20044;-74
2023/09/14 00:18:21;;;;;;;10.65;4.72;;;;;;;20.48;49.28;94796.03;4182534;28;20052;-74
2023/09/14 00:20:32;;;;;;;11.00;5.15;;;;;;;20.29;49.17;94796.00;4195391;28;20051;-74
2023/09/14 00:22:34;;;;;;;13.10;4.68;;;;;;;20.22;48.46;94790.75;4189536;28;20087;-75
2023/09/14 00:24:36;;;;;;;9.75;4.90;;;;;;;20.15;49.35;94797.94;4168207;28;20041;-74
2023/09/14 00:26:38;;;;;;;11.00;4.43;;;;;;;20.14;49.10;94803.50;4195293;28;20041;-74
2023/09/14 00:28:40;;;;;;;10.35;4.20;;;;;;;20.10;49.36;94805.75;4169716;28;20114;-75
2023/09/14 00:30:41;;;;;;;8.88;4.40;;;;;;;20.09;49.33;94800.66;4191829;28;20168;-75
2023/09/14 00:32:43;;;;;;;9.27;4.78;;;;;;;20.19;49.58;94798.31;4196807;28;20136;-76
2023/09/14 00:34:45;;;;;;;9.98;4.68;;;;;;;20.28;50.00;94797.03;4180665;28;20044;-74
2023/09/14 00:36:47;;;;;;;11.13;5.15;;;;;;;20.36;49.78;94799.41;4198734;28;20127;-76
2023/09/14 00:38:49;;;;;;;12.48;4.95;;;;;;;20.41;49.71;94807.56;4188183;28;20368;-75
2023/09/14 00:40:51;;;;;;;7.82;4.43;;;;;;;20.43;49.25;94802.84;4194904;28;20131;-75
2023/09/14 00:42:53;;;;;;;8.82;4.22;;;;;;;20.42;48.58;94798.53;4192058;28;20056;-76
2023/09/14 00:44:55;;;;;;;10.27;3.92;;;;;;;20.46;48.36;94805.06;4191632;28;20132;-74
2023/09/14 00:46:57;;;;;;;7.95;3.75;;;;;;;20.51;48.23;94800.94;4190327;28;20067;-74
2023/09/14 00:49:01;;;;;;;11.02;4.00;;;;;;;20.50;48.05;94791.31;4189141;28;20049;-74
2023/09/14 00:51:03;;;;;;;10.55;4.07;;;;;;;20.51;48.11;94798.28;4183815;28;20071;-74
2023/09/14 00:53:08;;;;;;;9.65;4.57;;;;;;;20.50;48.18;94794.81;4191787;28;20049;-75
2023/09/14 00:55:10;;;;;;;9.40;4.70;;;;;;;20.48;48.07;94780.06;4177063;28;20052;-73
2023/09/14 00:57:12;;;;;;;10.65;4.10;;;;;;;20.49;48.29;94798.50;4177083;28;20085;-75
2023/09/14 00:59:15;;;;;;;10.48;4.38;;;;;;;20.49;48.33;94792.34;4191861;28;20122;-75
2023/09/14 01:01:17;;;;;;;12.70;4.60;;;;;;;20.50;48.32;94791.31;4194023;28;20059;-74
2023/09/14 01:03:19;;;;;;;10.15;4.97;;;;;;;20.49;48.56;94793.16;4193511;28;20499;-73
2023/09/14 01:05:21;;;;;;;10.40;4.80;;;;;;;20.50;48.36;94794.81;4176084;28;20045;-76
2023/09/14 01:07:23;;;;;;;9.30;4.60;;;;;;;20.49;48.33;94795.03;4202592;28;20047;-74
2023/09/14 01:09:25;;;;;;;9.98;5.03;;;;;;;20.50;48.43;94786.00;4199268;28;20044;-75
2023/09/14 01:11:27;;;;;;;10.43;5.05;;;;;;;20.47;48.55;94781.94;4194163;28;20178;-76
2023/09/14 01:13:48;;;;;;;17.05;4.45;;;;;;;20.47;48.76;94779.25;4188613;28;20115;-75
2023/09/14 01:15:53;;;;;;;9.30;4.90;;;;;;;20.48;48.69;94774.75;4189107;28;20044;-76
2023/09/14 01:18:00;;;;;;;7.85;4.15;;;;;;;20.51;48.63;94779.66;4193938;28;20136;-75
2023/09/14 01:20:40;;;;;;;10.48;4.43;;;;;;;20.47;48.70;94787.25;4182139;28;20041;-75
2023/09/14 01:22:48;;;;;;;9.57;4.30;;;;;;;20.44;48.64;94785.03;4185318;28;20352;-75
2023/09/14 01:27:48;;;;;;;9.23;4.22;;;;;;;20.46;48.91;94794.41;4195183;28;20492;-78
2023/09/14 01:29:50;;;;;;;9.80;4.07;;;;;;;20.38;49.34;94797.34;4196255;28;20036;-77
2023/09/14 01:31:52;;;;;;;10.25;4.60;;;;;;;20.24;49.68;94790.50;4192987;28;20052;-73
2023/09/14 01:33:54;;;;;;;11.38;4.50;;;;;;;20.19;49.59;94796.47;4186860;28;20057;-76
2023/09/14 01:36:10;;;;;;;7.18;4.35;;;;;;;20.09;49.93;94803.31;4197401;28;20153;-76
2023/09/14 01:38:13;;;;;;;11.82;4.75;;;;;;;19.87;50.26;94802.84;4180323;28;20044;-76
2023/09/14 01:40:15;;;;;;;6.10;4.00;;;;;;;19.80;50.39;94802.88;4193871;28;20060;-76
2023/09/14 01:42:17;;;;;;;9.68;4.00;;;;;;;19.73;50.80;94802.94;4145695;28;20057;-75
2023/09/14 01:44:19;;;;;;;11.85;4.22;;;;;;;19.66;50.77;94794.16;4183256;28;20058;-76
2023/09/14 01:46:22;;;;;;;8.18;4.22;;;;;;;19.62;50.89;94798.25;4169522;28;20107;-75
2023/09/14 01:48:24;;;;;;;6.75;4.40;;;;;;;19.62;51.11;94799.06;4193258;28;20052;-76
2023/09/14 01:50:26;;;;;;;8.73;4.18;;;;;;;19.63;51.01;94797.22;4172899;28;20473;-74
2023/09/14 01:52:28;;;;;;;11.73;4.47;;;;;;;19.66;50.91;94799.47;4193586;28;20056;-74
2023/09/14 01:54:30;;;;;;;11.35;4.18;;;;;;;19.74;50.64;94804.53;4188849;28;20065;-75
2023/09/14 01:56:32;;;;;;;9.13;4.22;;;;;;;19.77;50.74;94800.66;4192670;28;20049;-74
2023/09/14 01:58:34;;;;;;;19.42;4.85;;;;;;;19.75;50.72;94795.56;4190480;28;20147;-75
2023/09/14 02:00:35;;;;;;;9.68;4.35;;;;;;;19.73;50.94;94804.78;4188912;28;20091;-75
2023/09/14 02:02:37;;;;;;;13.68;4.70;;;;;;;19.76;51.15;94805.16;4174503;28;20080;-75
2023/09/14 02:04:40;;;;;;;11.05;4.10;;;;;;;19.81;50.74;94810.66;4192095;28;20110;-76
2023/09/14 02:06:42;;;;;;;9.40;4.70;;;;;;;19.82;50.88;94809.59;4198614;28;20470;-75
2023/09/14 02:08:44;;;;;;;11.45;4.50;;;;;;;19.83;50.75;94805.09;4199523;28;20094;-76
2023/09/14 02:10:46;;;;;;;9.93;5.03;;;;;;;19.84;50.72;94801.44;4191876;28;20388;-74
2023/09/14 02:12:50;;;;;;;8.35;4.60;;;;;;;19.87;50.76;94806.31;4192804;28;20368;-76
2023/09/14 02:14:51;;;;;;;9.23;4.57;;;;;;;19.90;50.52;94795.25;4174775;28;20095;-76
2023/09/14 02:16:53;;;;;;;11.63;4.85;;;;;;;19.92;50.50;94793.22;4186089;28;20060;-76
2023/09/14 02:18:55;;;;;;;9.65;4.25;;;;;;;19.94;50.61;94800.94;4182105;28;20055;-75
2023/09/14 02:20:57;;;;;;;11.55;4.20;;;;;;;19.93;50.65;94804.66;4187540;28;20144;-75
2023/09/14 02:22:58;;;;;;;11.30;4.53;;;;;;;19.93;50.63;94805.44;4174342;28;20416;-77
2023/09/14 02:25:01;;;;;;;6.93;4.10;;;;;;;19.96;50.54;94805.03;4188476;28;20044;-76
2023/09/14 02:27:04;;;;;;;8.73;4.20;;;;;;;19.94;50.40;94809.75;4175726;28;20045;-75
2023/09/14 02:29:07;;;;;;;8.73;4.07;;;;;;;19.95;50.44;94803.41;4192149;28;20097;-76
2023/09/14 02:31:08;;;;;;;9.60;4.60;;;;;;;19.95;50.62;94807.91;4175710;28;20048;-75
2023/09/14 02:33:10;;;;;;;6.80;3.88;;;;;;;19.96;50.57;94809.53;4194095;28;20515;-76
2023/09/14 02:35:12;;;;;;;10.98;4.90;;;;;;;19.98;50.50;94808.31;4183524;28;20420;-75
2023/09/14 02:37:14;;;;;;;9.18;4.28;;;;;;;19.97;50.65;94806.66;4192608;28;20059;-77
2023/09/14 02:39:19;;;;;;;7.32;5.00;;;;;;;19.98;51.04;94796.84;4208921;28;20135;-75
2023/09/14 02:41:20;;;;;;;8.15;4.30;;;;;;;19.95;50.92;94798.09;4189882;28;20045;-76
2023/09/14 02:43:22;;;;;;;9.07;4.03;;;;;;;19.97;50.88;94796.03;4192472;28;20055;-76
2023/09/14 02:45:24;;;;;;;9.23;4.65;;;;;;;19.96;50.82;94794.41;4193924;28;20471;-76
2023/09/14 02:47:26;;;;;;;11.27;4.85;;;;;;;19.94;50.99;94785.84;4147548;28;20462;-74
2023/09/14 02:49:28;;;;;;;10.98;4.60;;;;;;;19.94;50.94;94785.84;4189513;28;20118;-75
2023/09/14 02:51:30;;;;;;;11.93;4.60;;;;;;;19.96;51.16;94789.09;4195428;28;20046;-75
2023/09/14 02:53:31;;;;;;;11.60;4.65;;;;;;;19.93;51.00;94778.88;4185114;28;20143;-77
2023/09/14 02:55:34;;;;;;;10.60;4.22;;;;;;;19.91;51.10;94774.81;4191449;28;20053;-75
2023/09/14 02:57:36;;;;;;;9.23;4.50;;;;;;;19.92;51.13;94781.72;4191493;28;20082;-75
2023/09/14 02:59:38;;;;;;;8.43;4.28;;;;;;;19.92;50.91;94776.41;4196078;28;20498;-74
2023/09/14 03:01:42;;;;;;;7.38;4.45;;;;;;;19.95;50.94;94774.16;4185937;28;20137;-74
2023/09/14 03:03:44;;;;;;;10.55;4.57;;;;;;;19.97;51.04;94774.75;4199618;28;20092;-74
2023/09/14 03:05:48;;;;;;;8.40;4.20;;;;;;;19.98;51.03;94779.06;4196146;28;20276;-74
2023/09/14 03:07:50;;;;;;;13.18;5.45;;;;;;;19.93;51.43;94791.34;4180702;28;20379;-73
2023/09/14 03:09:51;;;;;;;9.40;5.20;;;;;;;19.83;51.48;94790.00;4196057;28;20044;-75
2023/09/14 03:11:56;;;;;;;10.00;5.03;;;;;;;19.77;51.88;94790.84;4187817;28;20120;-76
2023/09/14 03:13:58;;;;;;;11.75;5.13;;;;;;;19.73;51.92;94788.81;4188117;28;20124;-74
2023/09/14 03:16:00;;;;;;;10.95;4.55;;;;;;;19.73;51.73;94791.50;4197839;28;20044;-75
2023/09/14 03:18:02;;;;;;;17.45;4.75;;;;;;;19.47;51.87;94797.69;4188839;28;20114;-75
2023/09/14 03:20:07;;;;;;;14.77;4.78;;;;;;;19.37;52.57;94787.53;4196494;28;20079;-75
2023/09/14 03:22:10;;;;;;;14.05;5.97;;;;;;;19.37;52.90;94795.50;4198175;28;20089;-75
2023/09/14 03:24:12;;;;;;;9.37;5.70;;;;;;;19.41;53.33;94796.72;4183676;28;20049;-75
2023/09/14 03:26:14;;;;;;;9.77;5.00;;;;;;;19.49;53.05;94796.47;4202293;28;20124;-76
2023/09/14 03:28:17;;;;;;;9.02;5.43;;;;;;;19.57;52.94;94801.53;4202477;28;20096;-73
2023/09/14 03:30:19;;;;;;;14.60;5.10;;;;;;;19.64;53.00;94799.66;4179062;28;20061;-74
2023/09/14 03:32:21;;;;;;;11.63;5.25;;;;;;;19.69;52.93;94796.38;4193040;28;20484;-76
2023/09/14 03:34:22;;;;;;;13.18;6.30;;;;;;;19.71;52.94;94790.88;4165589;28;20475;-77
2023/09/14 03:36:25;;;;;;;12.40;5.65;;;;;;;19.71;52.97;94804.97;4191800;28;20107;-75
2023/09/14 03:38:29;;;;;;;9.30;5.05;;;;;;;19.73;53.07;94796.81;4174946;28;20416;-74
2023/09/14 03:40:30;;;;;;;11.68;5.22;;;;;;;19.67;52.96;94793.13;4177936;28;20106;-75
2023/09/14 03:42:32;;;;;;;12.68;5.03;;;;;;;19.56;53.42;94799.09;4167244;28;20052;-76
2023/09/14 03:44:34;;;;;;;15.98;5.88;;;;;;;19.53;53.61;94797.69;4190880;28;20072;-75
2023/09/14 03:46:37;;;;;;;10.45;5.20;;;;;;;19.51;53.54;94801.56;4193655;28;20056;-76
2023/09/14 03:48:39;;;;;;;10.68;5.85;;;;;;;19.51;53.49;94796.25;4172462;28;20433;-75
2023/09/14 03:50:40;;;;;;;14.68;6.07;;;;;;;19.46;53.63;94796.88;4194349;28;20048;-75
2023/09/14 03:52:42;;;;;;;14.27;5.88;;;;;;;19.40;54.24;94790.59;4195042;28;20064;-76
2023/09/14 03:54:45;;;;;;;12.73;5.75;;;;;;;19.43;53.97;94800.78;4199612;28;20063;-75
2023/09/14 03:56:47;;;;;;;13.68;6.00;;;;;;;19.50;53.93;94799.94;4196102;28;20465;-76
2023/09/14 03:58:49;;;;;;;13.27;6.30;;;;;;;19.53;53.64;94800.34;4176045;28;20515;-76
2023/09/14 04:00:51;;;;;;;15.20;6.03;;;;;;;19.56;53.49;94810.53;4193348;28;20123;-76
2023/09/14 04:02:53;;;;;;;15.13;7.07;;;;;;;19.53;53.35;94807.47;4191917;28;20068;-78
2023/09/14 04:04:55;;;;;;;14.68;6.68;;;;;;;19.59;53.28;94814.63;4200284;28;20052;-76
2023/09/14 04:06:57;;;;;;;14.73;6.97;;;;;;;19.51;53.12;94807.72;4197873;28;20059;-76
2023/09/14 04:08:59;;;;;;;15.23;7.07;;;;;;;19.48;53.37;94809.97;4194754;28;20510;-76
2023/09/14 04:11:01;;;;;;;18.67;7.55;;;;;;;19.47;53.44;94808.31;4176653;28;20080;-74
2023/09/14 04:13:32;;;;;;;14.88;6.75;;;;;;;19.49;53.62;94809.78;4195798;28;20048;-74
2023/09/14 04:15:34;;;;;;;14.18;7.22;;;;;;;19.52;53.47;94809.34;4177027;28;20427;-79
2023/09/14 04:17:36;;;;;;;22.00;7.80;;;;;;;19.50;53.52;94814.03;4180596;28;20053;-76
2023/09/14 04:19:39;;;;;;;14.68;7.00;;;;;;;19.47;53.50;94810.97;4167831;28;20049;-75
2023/09/14 04:21:41;;;;;;;15.52;6.75;;;;;;;19.43;54.06;94819.38;4195028;28;20090;-75
2023/09/14 04:23:45;;;;;;;10.95;6.45;;;;;;;19.48;53.66;94816.09;4183089;28;20079;-77
2023/09/14 04:25:51;;;;;;;17.48;6.68;;;;;;;19.52;53.48;94816.50;4192348;28;20507;-75
2023/09/14 04:27:52;;;;;;;18.48;7.25;;;;;;;19.50;53.48;94819.34;4188802;28;20343;-77
2023/09/14 04:29:54;;;;;;;20.40;7.10;;;;;;;19.46;53.66;94820.81;4194983;28;20059;-78
2023/09/14 04:31:56;;;;;;;15.77;7.22;;;;;;;19.44;53.59;94817.53;4192507;28;20048;-75
2023/09/14 04:33:58;;;;;;;19.08;7.78;;;;;;;19.41;54.14;94813.47;4203709;28;20144;-76
2023/09/14 04:36:02;;;;;;;15.45;7.35;;;;;;;19.44;54.26;94823.69;4190507;28;20049;-76
2023/09/14 04:38:06;;;;;;;20.77;8.02;;;;;;;19.48;54.17;94817.94;4173655;28;20060;-79
2023/09/14 04:40:09;;;;;;;19.85;7.57;;;;;;;19.53;54.32;94820.78;4187726;28;20067;-77
2023/09/14 04:42:11;;;;;;;17.90;7.70;;;;;;;19.54;54.20;94817.09;4189102;28;20050;-75
2023/09/14 04:44:13;;;;;;;16.00;6.72;;;;;;;19.63;53.99;94829.91;4194123;28;20557;-72
2023/09/14 04:46:14;;;;;;;18.05;7.13;;;;;;;19.71;54.11;94828.09;4191623;28;20049;-75
2023/09/14 04:48:16;;;;;;;17.60;6.47;;;;;;;19.80;53.83;94830.28;4198646;28;20049;-78
2023/09/14 04:50:18;;;;;;;15.02;6.72;;;;;;;19.87;53.45;94824.09;4161121;28;20128;-74
2023/09/14 04:52:20;;;;;;;15.45;6.70;;;;;;;19.90;53.74;94821.84;4195173;28;20052;-76
2023/09/14 04:54:21;;;;;;;14.57;6.72;;;;;;;19.90;53.43;94829.00;4194902;28;20053;-76
2023/09/14 04:56:23;;;;;;;11.95;6.15;;;;;;;19.88;53.57;94831.88;4194758;28;20123;-75
2023/09/14 04:58:25;;;;;;;14.70;6.65;;;;;;;19.86;53.92;94833.13;4176482;28;20162;-76
2023/09/14 05:00:27;;;;;;;14.77;6.68;;;;;;;19.92;53.28;94830.44;4175545;28;20151;-77
2023/09/14 05:02:29;;;;;;;12.98;6.53;;;;;;;20.07;52.74;94838.09;4183676;28;20168;-77
2023/09/14 05:04:31;;;;;;;21.35;7.80;;;;;;;20.14;52.29;94830.09;4192637;28;20102;-76
2023/09/14 05:06:33;;;;;;;15.88;7.78;;;;;;;20.15;51.96;94829.03;4194201;28;20080;-76
2023/09/14 05:08:35;;;;;;;30.35;7.97;;;;;;;20.10;52.06;94829.69;4173561;28;20413;-76
2023/09/14 05:10:37;;;;;;;17.63;6.95;;;;;;;20.14;52.10;94832.75;4192033;28;20398;-77
2023/09/14 05:12:39;;;;;;;16.13;7.72;;;;;;;20.21;51.88;94841.47;4185724;28;20045;-76
2023/09/14 05:14:40;;;;;;;17.58;7.43;;;;;;;20.36;51.44;94835.84;4191018;28;20117;-79
2023/09/14 05:16:42;;;;;;;21.77;7.88;;;;;;;20.43;51.05;94837.44;4187601;28;20510;-76
2023/09/14 05:18:45;;;;;;;16.47;7.13;;;;;;;20.50;50.97;94837.38;4182893;28;20204;-77
2023/09/14 05:20:47;;;;;;;17.88;7.95;;;;;;;20.56;50.88;94835.69;4196153;28;20071;-80
2023/09/14 05:22:49;;;;;;;11.68;6.97;;;;;;;20.57;50.67;94843.50;4192393;28;20136;-75
2023/09/14 05:24:52;;;;;;;17.98;7.68;;;;;;;20.60;50.43;94843.03;4195250;28;20083;-78
2023/09/14 05:26:54;;;;;;;12.25;6.85;;;;;;;20.64;50.28;94838.09;4194769;28;20528;-76
2023/09/14 05:28:56;;;;;;;24.85;6.70;;;;;;;20.64;50.49;94840.78;4193393;28;20166;-76
2023/09/14 05:30:57;;;;;;;15.13;7.72;;;;;;;20.68;50.50;94833.97;4192712;28;20040;-77
2023/09/14 05:32:59;;;;;;;16.35;6.72;;;;;;;20.70;50.66;94831.91;4199603;28;20127;-76
2023/09/14 05:35:02;;;;;;;15.55;7.45;;;;;;;20.76;50.87;94825.72;4201107;28;20152;-75
2023/09/14 05:37:04;;;;;;;22.75;7.50;;;;;;;20.80;51.35;94831.41;4188403;28;20126;-77
2023/09/14 05:39:07;;;;;;;17.33;7.97;;;;;;;20.88;50.75;94833.78;4181404;28;20048;-76
2023/09/14 05:41:09;;;;;;;19.65;7.93;;;;;;;20.88;49.80;94830.31;4183988;28;20119;-79
2023/09/14 05:43:11;;;;;;;18.50;7.93;;;;;;;20.88;49.95;94830.31;4195415;28;20142;-75
2023/09/14 05:45:14;;;;;;;14.70;6.30;;;;;;;20.98;49.66;94830.63;4194257;28;20437;-76
2023/09/14 05:47:16;;;;;;;20.20;7.43;;;;;;;21.09;49.31;94839.75;4181488;28;20480;-75
2023/09/14 05:49:18;;;;;;;16.27;8.18;;;;;;;21.12;49.72;94842.75;4187633;28;20083;-75
2023/09/14 05:51:20;;;;;;;20.17;8.87;;;;;;;21.15;50.28;94836.19;4190196;28;20055;-76
2023/09/14 05:53:22;;;;;;;20.02;8.38;;;;;;;21.16;50.19;94838.63;4184236;28;20383;-76
2023/09/14 05:55:24;;;;;;;26.75;10.18;;;;;;;21.21;50.15;94844.13;4192783;28;20496;-75
2023/09/14 05:57:26;;;;;;;19.42;9.23;;;;;;;21.31;49.98;94840.13;4179142;28;20137;-77
2023/09/14 05:59:27;;;;;;;23.48;9.05;;;;;;;21.38;50.11;94840.84;4186939;28;20150;-77
2023/09/14 06:01:33;;;;;;;16.73;8.52;;;;;;;21.42;49.75;94839.41;4192506;28;20064;-77
2023/09/14 06:03:35;;;;;;;27.70;9.10;;;;;;;21.46;49.75;94835.25;4193982;28;20049;-76
2023/09/14 06:05:39;;;;;;;24.10;9.02;;;;;;;21.52;49.50;94837.03;4193992;28;20460;-76
2023/09/14 06:07:41;;;;;;;16.83;8.55;;;;;;;21.48;49.99;94831.31;4192496;28;20052;-75
2023/09/14 06:09:43;;;;;;;16.77;8.85;;;;;;;21.50;50.27;94830.28;4181744;28;20047;-78
2023/09/14 06:11:45;;;;;;;18.60;8.35;;;;;;;21.52;50.17;94838.88;4195802;28;20040;-74
2023/09/14 06:13:47;;;;;;;16.95;8.77;;;;;;;21.57;50.26;94826.50;4168814;28;20575;-75
2023/09/14 06:15:49;;;;;;;22.75;9.43;;;;;;;21.62;49.58;94829.31;4190850;28;20044;-76
2023/09/14 06:17:50;;;;;;;20.63;9.13;;;;;;;21.70;49.49;94827.38;4175073;28;20408;-77
2023/09/14 06:19:52;;;;;;;19.50;9.60;;;;;;;21.73;49.57;94824.28;4193158;28;20420;-74
2023/09/14 06:21:54;;;;;;;24.20;9.43;;;;;;;21.71;49.34;94821.81;4194117;28;20106;-78
2023/09/14 06:23:56;;;;;;;16.52;9.65;;;;;;;21.73;49.01;94824.28;4189113;28;20068;-76
2023/09/14 06:25:58;;;;;;;29.33;10.02;;;;;;;21.81;49.01;94835.44;4186797;28;20067;-77
2023/09/14 06:27:59;;;;;;;20.75;8.80;;;;;;;21.91;48.67;94839.41;4189632;28;20076;-77
2023/09/14 06:30:02;;;;;;;22.00;8.57;;;;;;;21.98;48.21;94837.47;4181719;28;20136;-76
2023/09/14 06:32:04;;;;;;;22.15;9.25;;;;;;;22.03;48.74;94837.59;4190135;28;20128;-77
2023/09/14 06:34:06;;;;;;;16.08;9.00;;;;;;;22.04;48.21;94839.22;4191511;28;20060;-76
2023/09/14 06:36:07;;;;;;;24.00;9.65;;;;;;;22.10;48.11;94846.31;4182677;28;20075;-75
2023/09/14 06:38:09;;;;;;;15.55;8.57;;;;;;;22.13;47.37;94845.84;4192217;28;20372;-75
2023/09/14 06:40:11;;;;;;;21.17;8.35;;;;;;;22.17;47.47;94848.88;4191136;28;20086;-78
2023/09/14 06:42:13;;;;;;;18.73;7.43;;;;;;;22.09;47.13;94847.34;4191891;28;20498;-75
2023/09/14 06:44:18;;;;;;;18.33;6.95;;;;;;;22.16;46.77;94853.41;4180890;28;20491;-78
2023/09/14 06:46:21;;;;;;;18.10;7.85;;;;;;;22.27;45.64;94852.66;4186881;28;20060;-78
2023/09/14 06:48:22;;;;;;;21.88;7.43;;;;;;;22.43;45.28;94851.19;4182694;28;20090;-77
2023/09/14 06:50:24;;;;;;;18.10;8.10;;;;;;;22.63;44.97;94853.56;4190038;28;20111;-76
2023/09/14 06:52:26;;;;;;;22.15;8.50;;;;;;;22.80;44.38;94850.19;4193700;28;20066;-77
2023/09/14 06:54:28;;;;;;;24.55;8.32;;;;;;;22.44;45.30;94855.50;4191976;28;20056;-77
2023/09/14 06:56:29;;;;;;;26.15;8.02;;;;;;;22.60;45.28;94858.53;4195089;28;20398;-75
2023/09/14 06:58:31;;;;;;;17.83;7.85;;;;;;;22.70;44.93;94861.47;4183148;28;20067;-76
2023/09/14 07:00:35;;;;;;;19.73;6.65;;;;;;;22.84;44.37;94860.19;4187324;28;20045;-77
2023/09/14 07:02:37;;;;;;;14.38;6.40;;;;;;;23.02;43.98;94861.16;4180131;28;20049;-77
2023/09/14 07:04:39;;;;;;;13.27;6.85;;;;;;;23.11;43.96;94865.09;4183640;28;20049;-77
2023/09/14 07:06:42;;;;;;;14.13;7.05;;;;;;;23.14;44.28;94858.47;4185308;28;20136;-79
2023/09/14 07:08:44;;;;;;;19.42;7.30;;;;;;;22.92;44.42;94861.69;4188417;28;20059;-77
2023/09/14 07:10:46;;;;;;;20.67;8.02;;;;;;;22.77;45.03;94862.16;4189535;28;20048;-79
2023/09/14 07:12:48;;;;;;;20.52;9.40;;;;;;;22.77;45.09;94862.16;4197557;28;20107;-78
2023/09/14 07:14:50;;;;;;;22.15;10.55;;;;;;;22.89;45.14;94862.19;4196741;28;20166;-77
2023/09/14 07:16:52;;;;;;;26.15;11.10;;;;;;;22.88;45.03;94864.00;4193354;28;20052;-77
2023/09/14 07:18:54;;;;;;;24.70;8.90;;;;;;;23.02;45.09;94863.84;4163935;28;20053;-77
2023/09/14 07:20:57;;;;;;;25.02;8.45;;;;;;;23.18;44.75;94860.44;4190747;28;20376;-77
2023/09/14 07:22:59;;;;;;;25.30;8.05;;;;;;;23.16;44.39;94861.72;4171861;28;20076;-78
2023/09/14 07:25:02;;;;;;;21.63;8.57;;;;;;;23.09;44.55;94867.19;4191163;28;20048;-77
2023/09/14 07:27:04;;;;;;;19.58;8.07;;;;;;;23.04;44.78;94856.41;4198802;28;20052;-77
2023/09/14 07:29:05;;;;;;;21.58;8.57;;;;;;;23.15;44.44;94865.47;4187432;28;20265;-80
2023/09/14 07:31:09;;;;;;;35.20;17.50;;;;;;;23.14;44.75;94856.59;4194764;28;20045;-77
2023/09/14 07:33:11;;;;;;;35.30;17.58;;;;;;;23.03;44.71;94865.44;4179454;28;20052;-79
2023/09/14 07:35:13;;;;;;;31.33;13.40;;;;;;;22.92;45.00;94868.91;4190634;28;20212;-79
2023/09/14 07:37:15;;;;;;;30.90;14.48;;;;;;;22.99;44.74;94877.59;4189267;28;20136;-79
2023/09/14 07:39:17;;;;;;;22.13;9.80;;;;;;;23.14;44.48;94872.63;4189453;28;20049;-79
2023/09/14 07:41:22;;;;;;;26.67;11.35;;;;;;;23.22;44.51;94872.28;4197871;28;20048;-78
2023/09/14 07:43:24;;;;;;;25.55;10.45;;;;;;;23.16;44.56;94875.88;4198343;28;20506;-79
2023/09/14 07:45:29;;;;;;;25.92;10.57;;;;;;;23.23;44.24;94879.28;4191115;28;20057;-76
2023/09/14 07:47:34;;;;;;;23.25;9.32;;;;;;;23.25;44.37;94879.03;4188475;28;20045;-78
2023/09/14 07:49:36;;;;;;;24.85;9.65;;;;;;;23.16;44.70;94875.88;4191968;28;20283;-74
2023/09/14 07:51:37;;;;;;;29.38;9.02;;;;;;;23.11;44.54;94875.78;4196156;28;20387;-78
2023/09/14 07:53:39;;;;;;;27.08;8.20;;;;;;;23.15;44.33;94876.94;4182727;28;20056;-77
2023/09/14 07:55:41;;;;;;;18.08;7.57;;;;;;;23.29;44.09;94874.84;4174575;28;20445;-75
2023/09/14 07:57:43;;;;;;;23.63;7.30;;;;;;;23.36;43.76;94870.19;4191051;28;20080;-80
2023/09/14 07:59:45;;;;;;;22.77;8.02;;;;;;;23.41;42.97;94878.31;4195999;28;20045;-76
2023/09/14 08:01:47;;;;;;;27.13;7.80;;;;;;;23.66;43.26;94871.88;4189988;28;20053;-76
2023/09/14 08:03:49;;;;;;;17.92;7.30;;;;;;;23.92;42.28;94867.91;4177752;28;20073;-79
2023/09/14 08:05:52;;;;;;;17.30;6.78;;;;;;;24.01;41.60;94868.31;4185621;28;20045;-77
2023/09/14 08:07:54;;;;;;;20.20;6.93;;;;;;;24.14;41.75;94862.69;4186012;28;20056;-78
2023/09/14 08:09:55;;;;;;;24.95;6.85;;;;;;;24.38;41.65;94866.03;4170931;28;20055;-77
2023/09/14 08:11:57;;;;;;;17.08;7.07;;;;;;;24.51;41.49;94868.44;4175663;28;20114;-77
2023/09/14 08:13:59;;;;;;;22.20;6.95;;;;;;;24.61;41.46;94857.09;4183668;28;20055;-75
2023/09/14 08:16:05;;;;;;;16.52;8.05;;;;;;;24.80;40.85;94846.97;4183119;28;20053;-74
2023/09/14 08:18:07;;;;;;;22.10;7.38;;;;;;;24.80;40.64;94852.31;4187113;28;20147;-76
2023/09/14 08:20:09;;;;;;;21.05;6.95;;;;;;;24.63;40.87;94848.81;4179580;28;20049;-76
2023/09/14 08:22:10;;;;;;;20.73;7.22;;;;;;;24.71;40.85;94851.88;4198987;28;20055;-73
2023/09/14 08:24:12;;;;;;;19.38;7.10;;;;;;;24.93;40.83;94849.31;4175803;28;20230;-76
2023/09/14 08:26:14;;;;;;;18.23;6.60;;;;;;;25.12;40.37;94860.56;4195454;28;20061;-78
2023/09/14 08:28:17;;;;;;;17.10;7.10;;;;;;;24.70;40.42;94857.50;4194850;28;20113;-77
2023/09/14 08:30:19;;;;;;;20.90;6.80;;;;;;;24.47;40.87;94864.59;4184824;28;20140;-76
2023/09/14 08:32:21;;;;;;;20.15;7.40;;;;;;;24.66;40.90;94851.00;4175708;28;20119;-78
2023/09/14 08:34:23;;;;;;;21.48;7.97;;;;;;;24.78;40.60;94845.56;4188588;28;20148;-75
2023/09/14 08:36:25;;;;;;;24.63;8.25;;;;;;;24.90;40.29;94851.66;4182600;28;20517;-77
2023/09/14 08:38:27;;;;;;;18.58;7.30;;;;;;;24.97;40.27;94849.59;4174674;28;20057;-76
2023/09/14 08:40:29;;;;;;;20.83;8.18;;;;;;;25.17;40.09;94850.94;4184384;28;20048;-80
2023/09/14 08:42:31;;;;;;;17.33;7.45;;;;;;;25.23;39.92;94844.63;4168123;28;20153;-77
2023/09/14 08:44:33;;;;;;;21.45;6.63;;;;;;;25.38;39.85;94844.84;4172238;28;20128;-75
2023/09/14 08:46:35;;;;;;;20.87;7.23;;;;;;;25.67;39.35;94839.31;4191319;28;20113;-75
2023/09/14 08:48:39;;;;;;;20.00;7.95;;;;;;;25.48;39.41;94842.31;4173176;28;20053;-77
2023/09/14 08:50:43;;;;;;;18.55;7.53;;;;;;;25.48;39.32;94836.94;4188370;28;20060;-78
2023/09/14 08:52:45;;;;;;;;;;;;;;;25.48;39.33;94834.25;4174960;28;20041;-79
2023/09/14 08:54:48;;;;;;;17.83;6.82;;;;;;;25.54;39.29;94830.56;4194956;28;20297;-77
2023/09/14 08:56:51;;;;;;;18.30;6.68;;;;;;;25.48;39.32;94834.25;4191464;28;20083;-77
2023/09/14 08:58:54;;;;;;;18.15;7.25;;;;;;;25.46;39.59;94822.16;4170680;28;20049;-76
2023/09/14 09:00:57;;;;;;;13.02;6.97;;;;;;;25.42;39.07;94826.41;4186331;28;20053;-78
2023/09/14 09:02:59;;;;;;;14.70;7.18;;;;;;;25.58;39.13;94814.00;4191806;28;20351;-76
2023/09/14 09:05:02;;;;;;;14.73;6.10;;;;;;;25.65;39.24;94811.94;4191810;28;20118;-77
2023/09/14 09:07:04;;;;;;;21.48;7.45;;;;;;;25.78;38.95;94811.53;4195149;28;20460;-77
2023/09/14 09:09:07;;;;;;;14.43;6.60;;;;;;;25.85;38.92;94809.47;4135217;28;20058;-80
2023/09/14 09:11:09;;;;;;;23.27;6.00;;;;;;;25.73;38.88;94803.44;4167594;28;20471;-79
2023/09/14 09:13:11;;;;;;;14.30;5.18;;;;;;;25.68;38.82;94801.53;4193542;28;20083;-78
2023/09/14 09:15:16;;;;;;;28.23;6.40;;;;;;;25.94;38.53;94793.75;4187883;28;20171;-78
2023/09/14 09:17:17;;;;;;;23.80;6.13;;;;;;;26.13;37.88;94792.31;4192696;28;20056;-76
2023/09/14 09:19:19;;;;;;;16.13;5.80;;;;;;;26.26;37.77;94779.56;4185410;28;20064;-76
2023/09/14 09:21:28;;;;;;;13.80;5.53;;;;;;;26.45;37.52;94786.16;4191275;28;20045;-77
2023/09/14 09:23:32;;;;;;;17.05;5.57;;;;;;;26.62;37.41;94779.88;4173519;28;20045;-75
2023/09/14 09:25:43;;;;;;;;;;;;;;;26.70;37.41;94779.41;4193855;28;20129;-75
2023/09/14 09:27:44;;;;;;;23.83;6.15;;;;;;;26.69;37.14;94781.25;4194065;28;20332;-79
2023/09/14 09:29:50;;;;;;;22.58;6.22;;;;;;;26.80;36.94;94781.34;4189600;28;20539;-77
2023/09/14 09:31:52;;;;;;;15.40;5.40;;;;;;;26.86;37.08;94788.38;4191769;28;20166;-77
2023/09/14 09:33:54;;;;;;;18.02;5.55;;;;;;;27.04;36.70;94785.28;4192783;28;20067;-76